Terminal Aerodrome Forecast
Issued by NWS

Home | Current Version | Previous Version | Graphics & Text | Print | Product List | Glossary Off
Versions: 1 2 3 4 5 6 7 8 9 10 11 12 13 14 15 16 17 18

506
FTUS43 KGRB 232330
TAFAUW
TAF
KAUW 232330Z 2400/2424 03006KT P6SM SCT050 OVC110
     FM240500 05010KT 5SM -SN OVC020
     FM240800 04011G16KT 2SM -SN OVC012
     FM241100 03012G20KT 1/2SM SN OVC006
     FM241400 02016G25KT 1SM -SN BLSN OVC010=

USA.gov is the U.S. government's official web portal to all federal, state and local government web resources and services.